Current | Forecast
Updated: 7:00 AM JST on June 26, 2017
Observed at Fukushima, Japan
Temperature 68°F
Humidity 68%
Dew Point 57°F
Wind North at 7 mph
Pressure 29.71 in (Rising)
Conditions Mostly Cloudy
Visibility 6.2 miles
UV 2 out of 16
Clouds (FEW) : 2000 ft
Mostly Cloudy (BKN) : 10000 ft
Yesterday's Maximum 77°F
Yesterday's Minimum 68°F approx.
Yesterday's Cooling Degree Days 8 approx.
Sunrise4:22 AM JST
Sunset7:02 PM JST
Moon Rise6:32 AM JST
Moon Set8:52 PM JST
Moon PhaseMoon Phase
Waxing Crescent
Raw METARMETAR RJSF 252200Z 36006KT 9999 FEW020 BKN100 BKN/// 20/14 Q1006


Monday
. High: 80° F.
Tuesday
. High: 82° F.
Wednesday
. High: 73° F.
Thursday
. High: 77° F.
Friday
. High: 78° F.
Saturday
. High: 82° F.
Sunday
. High: 78° F.
Monday
. High: 73° F.

Units: English | Metric

Find the Weather for any City, State or Zipcode, or Country:

U.S. State List | Severe Weather | Tropical Storms | Ski Conditions
United States | Canada | Central America | South America | Asia | Europe | Australia | Africa | Islands

Weather Underground

© Copyright 2017
The Weather Company, LLC